Time;durP1;ratioP1;P1;durP2;ratioP2;P2;SDS_P1;SDS_P2;PMS_P1;PMS_P2;Temp;Humidity;BMP_temperature;BMP_pressure;BME280_temperature;BME280_humidity;BME280_pressure;Samples;Min_cycle;Max_cycle;Signal;HPM_P1;HPM_P2
2022/11/09 00:00:30;;;;;;;9.32;1.35;;;;;;;8.90;100.00;99282.66;5062937;28;20036;-59
2022/11/09 00:02:55;;;;;;;9.73;1.35;;;;;;;8.85;100.00;99277.16;5061769;28;20051;-60
2022/11/09 00:05:20;;;;;;;8.48;2.13;;;;;;;8.86;100.00;99285.94;5052783;28;20494;-61
2022/11/09 00:07:45;;;;;;;21.50;3.80;;;;;;;8.83;100.00;99292.44;5059786;28;20028;-59
2022/11/09 00:10:11;;;;;;;11.25;2.83;;;;;;;8.83;100.00;99294.25;5058412;28;20055;-59
2022/11/09 00:12:36;;;;;;;12.07;1.95;;;;;;;8.83;100.00;99302.19;5059065;28;20393;-59
2022/11/09 00:15:01;;;;;;;8.73;1.90;;;;;;;8.80;100.00;99314.00;5064150;28;20048;-60
2022/11/09 00:17:27;;;;;;;8.65;2.35;;;;;;;8.80;100.00;99310.53;5062216;28;20468;-59
2022/11/09 00:19:52;;;;;;;9.75;1.35;;;;;;;8.76;100.00;99304.06;5057448;28;20023;-60
2022/11/09 00:22:17;;;;;;;8.32;2.80;;;;;;;8.77;100.00;99314.41;5059758;28;20501;-58
2022/11/09 00:24:43;;;;;;;17.55;1.67;;;;;;;8.81;100.00;99320.91;5053783;28;20099;-58
2022/11/09 00:27:08;;;;;;;14.07;3.47;;;;;;;8.77;100.00;99313.59;5056221;28;20048;-61
2022/11/09 00:29:33;;;;;;;8.80;1.70;;;;;;;8.74;100.00;99317.47;5048574;28;20490;-58
2022/11/09 00:31:59;;;;;;;7.55;2.22;;;;;;;8.75;100.00;99316.44;5057271;28;20115;-60
2022/11/09 00:34:24;;;;;;;7.78;1.02;;;;;;;8.74;100.00;99314.84;5053363;28;20035;-53
2022/11/09 00:36:49;;;;;;;11.32;1.13;;;;;;;8.66;100.00;99310.56;5059137;28;20025;-59
2022/11/09 00:39:16;;;;;;;8.15;0.90;;;;;;;8.66;100.00;99313.22;5053241;28;20175;-58
2022/11/09 00:41:41;;;;;;;5.63;1.48;;;;;;;8.68;100.00;99315.66;5060391;28;20028;-60
2022/11/09 00:44:07;;;;;;;10.48;3.13;;;;;;;8.69;100.00;99309.34;5057731;28;20132;-60
2022/11/09 00:46:32;;;;;;;8.65;1.35;;;;;;;8.68;100.00;99310.38;5059206;28;20115;-60
2022/11/09 00:48:57;;;;;;;5.20;2.53;;;;;;;8.67;100.00;99314.88;5053954;28;20406;-60
2022/11/09 00:51:24;;;;;;;10.82;1.20;;;;;;;8.71;100.00;99312.59;5053422;28;20024;-61
2022/11/09 00:53:53;;;;;;;9.68;1.67;;;;;;;8.68;100.00;99323.59;5052533;28;20033;-60
2022/11/09 00:56:19;;;;;;;14.43;2.45;;;;;;;8.61;100.00;99320.97;5057512;28;20037;-57
2022/11/09 00:58:44;;;;;;;7.53;2.15;;;;;;;8.57;100.00;99319.75;5052150;28;20028;-60
2022/11/09 01:01:15;;;;;;;9.23;1.40;;;;;;;8.64;100.00;99325.00;5060315;28;20035;-56
2022/11/09 01:03:41;;;;;;;6.40;1.50;;;;;;;8.60;100.00;99331.75;5058696;28;20029;-59
2022/11/09 01:06:07;;;;;;;9.23;1.75;;;;;;;8.52;100.00;99336.22;5037854;28;20032;-57
2022/11/09 01:08:33;;;;;;;5.47;2.10;;;;;;;8.49;100.00;99333.16;5054414;28;20486;-60
2022/11/09 01:11:06;;;;;;;12.27;2.13;;;;;;;8.47;100.00;99335.22;5056854;28;20758;-58
2022/11/09 01:13:32;;;;;;;5.50;0.98;;;;;;;8.43;100.00;99328.72;5054897;28;20037;-60
2022/11/09 01:15:57;;;;;;;5.13;2.05;;;;;;;8.44;100.00;99331.16;5059932;28;20462;-59
2022/11/09 01:18:23;;;;;;;22.90;1.60;;;;;;;8.43;100.00;99332.16;5036446;28;20193;-59
2022/11/09 01:20:49;;;;;;;10.57;2.05;;;;;;;8.41;100.00;99334.19;5024131;28;20044;-60
2022/11/09 01:23:17;;;;;;;10.93;1.08;;;;;;;8.36;100.00;99331.31;5063568;28;20028;-59
2022/11/09 01:25:42;;;;;;;6.30;0.70;;;;;;;8.28;100.00;99323.59;5044895;28;20454;-57
2022/11/09 01:28:09;;;;;;;6.90;1.75;;;;;;;8.26;100.00;99330.91;5060974;28;20051;-55
2022/11/09 01:30:40;;;;;;;16.42;2.20;;;;;;;8.22;100.00;99335.00;5059213;28;20063;-57
2022/11/09 01:33:08;;;;;;;14.77;1.70;;;;;;;8.15;100.00;99334.16;5060224;28;20425;-57
2022/11/09 01:35:35;;;;;;;12.05;1.15;;;;;;;8.17;100.00;99332.94;5056301;28;20025;-56
2022/11/09 01:38:02;;;;;;;3.63;1.73;;;;;;;8.24;100.00;99339.06;5037877;28;20044;-58
2022/11/09 01:40:29;;;;;;;13.18;1.70;;;;;;;8.33;100.00;99344.94;5054868;28;20051;-59
2022/11/09 01:42:54;;;;;;;12.20;1.42;;;;;;;8.35;100.00;99347.38;5057984;28;20036;-59
2022/11/09 01:45:28;;;;;;;8.45;3.00;;;;;;;8.41;100.00;99350.03;5045564;28;20048;-57
2022/11/09 01:48:11;;;;;;;11.85;1.13;;;;;;;8.37;100.00;99348.00;5055896;28;20069;-58
2022/11/09 01:50:44;;;;;;;10.20;1.20;;;;;;;8.39;100.00;99344.16;5055672;28;20537;-57
2022/11/09 01:53:17;;;;;;;12.75;1.00;;;;;;;8.40;100.00;99356.34;5059603;28;20180;-58
2022/11/09 01:55:47;;;;;;;14.25;3.10;;;;;;;8.43;100.00;99361.22;5058321;28;20021;-57
2022/11/09 01:58:19;;;;;;;4.35;1.20;;;;;;;8.39;100.00;99365.28;5043600;28;20036;-59
2022/11/09 02:00:48;;;;;;;13.02;1.65;;;;;;;8.46;100.00;99373.19;5059972;28;20066;-59
2022/11/09 02:03:20;;;;;;;13.63;2.28;;;;;;;8.50;100.00;99377.06;5064548;28;20135;-62
2022/11/09 02:05:47;;;;;;;8.82;2.20;;;;;;;8.46;100.00;99374.00;5059051;28;20060;-61
2022/11/09 02:08:16;;;;;;;10.75;2.33;;;;;;;8.49;100.00;99373.63;5055477;28;20029;-61
2022/11/09 02:10:53;;;;;;;11.18;2.47;;;;;;;8.50;100.00;99369.16;5060972;28;20025;-60
2022/11/09 02:13:21;;;;;;;3.83;1.30;;;;;;;8.46;100.00;99366.09;5058440;28;20041;-60
2022/11/09 02:15:48;;;;;;;16.58;1.33;;;;;;;8.47;100.00;99369.56;5058134;28;20403;-55
2022/11/09 02:18:14;;;;;;;9.35;1.70;;;;;;;8.50;100.00;99377.88;5051111;28;20032;-55
2022/11/09 02:20:45;;;;;;;11.32;3.67;;;;;;;8.56;100.00;99376.25;5056769;28;20385;-61
2022/11/09 02:23:11;;;;;;;8.07;2.88;;;;;;;8.58;100.00;99368.13;5060562;28;20719;-60
2022/11/09 02:25:36;;;;;;;6.93;1.25;;;;;;;8.57;100.00;99369.97;5056976;28;20095;-60
2022/11/09 02:28:02;;;;;;;6.53;0.90;;;;;;;8.52;100.00;99372.41;5060743;28;20057;-61
2022/11/09 02:30:27;;;;;;;17.83;2.50;;;;;;;8.56;100.00;99375.44;5052476;28;20033;-57
2022/11/09 02:32:52;;;;;;;6.82;2.83;;;;;;;8.56;100.00;99372.78;5058913;28;20451;-61
2022/11/09 02:35:18;;;;;;;5.95;0.63;;;;;;;8.55;100.00;99384.38;5061008;28;20556;-61
2022/11/09 02:37:48;;;;;;;11.77;2.28;;;;;;;8.57;100.00;99377.88;5059379;28;20140;-61
2022/11/09 02:40:19;;;;;;;5.38;0.95;;;;;;;8.52;100.00;99381.13;5059357;28;20104;-57
2022/11/09 02:42:45;;;;;;;8.63;1.33;;;;;;;8.48;100.00;99379.91;5038439;28;20021;-62
2022/11/09 02:45:10;;;;;;;11.43;1.80;;;;;;;8.54;100.00;99386.19;5046980;28;20039;-60
2022/11/09 02:47:36;;;;;;;21.33;2.45;;;;;;;8.62;100.00;99396.59;5038925;28;20040;-59
2022/11/09 02:50:01;;;;;;;8.18;1.25;;;;;;;8.64;100.00;99405.09;5059248;28;21155;-60
2022/11/09 02:52:27;;;;;;;5.70;1.13;;;;;;;8.68;100.00;99393.09;5056628;28;20039;-60
2022/11/09 02:54:52;;;;;;;17.02;1.73;;;;;;;8.67;100.00;99383.56;5054954;28;20036;-59
2022/11/09 02:57:17;;;;;;;7.78;0.90;;;;;;;8.65;100.00;99388.25;5049997;28;20048;-61
2022/11/09 02:59:43;;;;;;;9.55;2.17;;;;;;;8.64;100.00;99388.44;5030078;28;20028;-61
2022/11/09 03:02:08;;;;;;;6.38;2.25;;;;;;;8.57;100.00;99392.91;5044059;28;20115;-56
2022/11/09 03:04:34;;;;;;;14.82;1.75;;;;;;;8.52;100.00;99393.53;5065974;28;20021;-55
2022/11/09 03:06:59;;;;;;;10.30;1.05;;;;;;;8.49;100.00;99383.34;5063420;28;20024;-59
2022/11/09 03:09:24;;;;;;;3.25;0.50;;;;;;;8.46;100.00;99394.34;5061358;28;20055;-61
2022/11/09 03:11:49;;;;;;;9.30;2.03;;;;;;;8.35;100.00;99390.44;5068701;28;20040;-60
2022/11/09 03:14:16;;;;;;;3.42;1.25;;;;;;;8.34;100.00;99393.28;5051955;28;20035;-60
2022/11/09 03:16:41;;;;;;;10.70;1.98;;;;;;;8.28;100.00;99394.91;5060264;28;20157;-58
2022/11/09 03:19:06;;;;;;;1.80;1.23;;;;;;;8.32;100.00;99396.13;5057223;28;20243;-56
2022/11/09 03:21:32;;;;;;;3.55;0.50;;;;;;;8.24;100.00;99388.41;5064526;28;20040;-61
2022/11/09 03:23:57;;;;;;;7.32;1.40;;;;;;;8.25;100.00;99403.25;5062197;28;20044;-58
2022/11/09 03:26:22;;;;;;;5.47;1.90;;;;;;;8.21;100.00;99396.72;5042165;28;20881;-60
2022/11/09 03:28:48;;;;;;;6.18;0.65;;;;;;;8.21;100.00;99396.72;5056765;28;20044;-62
2022/11/09 03:31:14;;;;;;;5.28;0.88;;;;;;;8.26;100.00;99396.94;5058610;28;20060;-60
2022/11/09 03:33:39;;;;;;;8.93;1.55;;;;;;;8.25;100.00;99393.47;5059229;28;20541;-61
2022/11/09 03:36:06;;;;;;;6.88;1.77;;;;;;;8.20;100.00;99398.56;5058043;28;20035;-60
2022/11/09 03:38:31;;;;;;;8.23;1.98;;;;;;;8.18;100.00;99400.56;5065803;28;20501;-61
2022/11/09 03:41:00;;;;;;;9.85;1.05;;;;;;;8.18;100.00;99410.34;5057128;28;20112;-55
2022/11/09 03:43:27;;;;;;;9.77;2.95;;;;;;;8.12;100.00;99396.13;5057556;28;20089;-60
2022/11/09 03:45:52;;;;;;;2.53;0.95;;;;;;;8.11;100.00;99409.53;5045975;28;20443;-61
2022/11/09 03:48:17;;;;;;;7.55;0.88;;;;;;;8.21;100.00;99409.94;5057192;28;20083;-60
2022/11/09 03:50:43;;;;;;;3.03;0.88;;;;;;;8.25;100.00;99419.09;5058280;28;20331;-59
2022/11/09 03:53:09;;;;;;;4.53;1.00;;;;;;;8.32;100.00;99416.47;5054143;28;20041;-60
2022/11/09 03:55:36;;;;;;;8.23;1.88;;;;;;;8.34;100.00;99425.81;5056671;28;20353;-61
2022/11/09 03:58:02;;;;;;;2.40;0.40;;;;;;;8.38;100.00;99426.22;5058265;28;20032;-60
2022/11/09 04:00:27;;;;;;;10.88;1.55;;;;;;;8.36;100.00;99426.41;5061091;28;20481;-57
2022/11/09 04:02:53;;;;;;;2.63;0.73;;;;;;;8.27;100.00;99423.16;5058010;28;20043;-59
2022/11/09 04:05:19;;;;;;;3.95;1.35;;;;;;;8.24;100.00;99422.75;5057546;28;20040;-61
2022/11/09 04:07:49;;;;;;;6.68;0.88;;;;;;;8.24;100.00;99435.97;5066372;28;20032;-60
2022/11/09 04:10:15;;;;;;;5.40;0.73;;;;;;;8.26;100.00;99431.25;5059385;28;20242;-61
2022/11/09 04:12:41;;;;;;;2.05;0.35;;;;;;;8.24;100.00;99430.69;5058703;28;20501;-61
2022/11/09 04:15:06;;;;;;;1.42;0.82;;;;;;;8.24;100.00;99430.69;5058460;28;20032;-59
2022/11/09 04:17:32;;;;;;;6.10;1.00;;;;;;;8.32;100.00;99434.94;5061077;28;20039;-61
2022/11/09 04:19:57;;;;;;;9.95;1.52;;;;;;;8.34;100.00;99433.72;5062591;28;20134;-61
2022/11/09 04:22:23;;;;;;;3.83;1.25;;;;;;;8.40;100.00;99440.06;5050962;28;20033;-58
2022/11/09 04:24:48;;;;;;;4.90;0.75;;;;;;;8.42;100.00;99430.91;5058329;28;20264;-60
2022/11/09 04:27:14;;;;;;;7.43;1.02;;;;;;;8.43;100.00;99435.19;5058553;28;20123;-61
2022/11/09 04:29:39;;;;;;;9.10;0.47;;;;;;;8.47;100.00;99444.34;5061571;28;20053;-59
2022/11/09 04:32:05;;;;;;;2.75;0.65;;;;;;;8.51;100.00;99434.16;5060921;28;20094;-61
2022/11/09 04:34:30;;;;;;;2.58;0.43;;;;;;;8.57;100.00;99440.47;5054848;28;20040;-61
2022/11/09 04:36:55;;;;;;;8.43;0.52;;;;;;;8.60;100.00;99437.44;5055919;28;20025;-60
2022/11/09 04:39:21;;;;;;;8.13;1.80;;;;;;;8.61;100.00;99441.69;5043490;28;20385;-60
2022/11/09 04:41:46;;;;;;;7.55;1.17;;;;;;;8.62;100.00;99443.31;5061137;28;20481;-61
2022/11/09 04:44:11;;;;;;;8.98;0.90;;;;;;;8.59;100.00;99441.06;5056612;28;20021;-60
2022/11/09 04:46:37;;;;;;;12.98;2.97;;;;;;;8.61;100.00;99447.78;5058237;28;20040;-58
2022/11/09 04:49:02;;;;;;;3.47;1.60;;;;;;;8.63;100.00;99453.69;5052797;28;20464;-58
2022/11/09 04:51:28;;;;;;;5.65;1.08;;;;;;;8.67;100.00;99462.84;5059352;28;20033;-59
2022/11/09 04:53:53;;;;;;;5.65;0.98;;;;;;;8.72;100.00;99459.56;5040773;28;20482;-60
2022/11/09 04:56:18;;;;;;;5.47;0.22;;;;;;;8.73;100.00;99455.94;5057904;28;20040;-57
2022/11/09 04:58:44;;;;;;;6.25;1.02;;;;;;;8.72;100.00;99457.75;5051001;28;20025;-57
2022/11/09 05:01:11;;;;;;;2.60;1.20;;;;;;;8.74;100.00;99458.34;5047286;28;20212;-61
2022/11/09 05:03:37;;;;;;;4.25;0.55;;;;;;;8.74;100.00;99441.69;5058786;28;20123;-60
2022/11/09 05:06:30;;;;;;;5.97;0.60;;;;;;;8.75;100.00;99440.66;5058005;28;20036;-60
2022/11/09 05:08:48;;;;;;;2.25;0.70;;;;;;;8.73;100.00;99440.88;5053239;28;20055;-61
2022/11/09 05:11:14;;;;;;;5.32;1.05;;;;;;;8.73;100.00;99451.44;5034593;28;20033;-61
2022/11/09 05:13:39;;;;;;;2.72;0.30;;;;;;;8.74;100.00;99453.06;5048596;28;20036;-61
2022/11/09 05:16:05;;;;;;;5.68;0.73;;;;;;;8.73;100.00;99455.94;5058076;28;20139;-58
2022/11/09 05:18:30;;;;;;;4.07;0.63;;;;;;;8.67;100.00;99462.84;5056257;28;20032;-62
2022/11/09 05:21:00;;;;;;;7.10;1.30;;;;;;;8.67;100.00;99467.28;5036959;28;20029;-61
2022/11/09 05:23:59;;;;;;;3.85;1.17;;;;;;;8.61;100.00;99474.22;5056238;28;20530;-59
2022/11/09 05:26:17;;;;;;;5.50;2.00;;;;;;;8.60;100.00;99474.44;5050895;28;20135;-62
2022/11/09 05:28:43;;;;;;;5.82;1.75;;;;;;;8.59;100.00;99481.53;5050658;28;21401;-60
2022/11/09 05:31:09;;;;;;;3.92;0.40;;;;;;;8.62;100.00;99475.84;5055914;28;20035;-60
2022/11/09 05:33:34;;;;;;;4.80;1.05;;;;;;;8.59;100.00;99470.16;5060382;28;20029;-60
2022/11/09 05:36:00;;;;;;;6.63;0.50;;;;;;;8.57;100.00;99472.16;5042544;28;20087;-58
2022/11/09 05:38:25;;;;;;;3.03;0.80;;;;;;;8.52;100.00;99480.72;5056702;28;20276;-61
2022/11/09 05:40:51;;;;;;;3.45;1.20;;;;;;;8.52;100.00;99484.16;5053601;28;20056;-58
2022/11/09 05:43:16;;;;;;;7.13;0.57;;;;;;;8.50;100.00;99480.09;5055132;28;20025;-61
2022/11/09 05:45:42;;;;;;;5.18;0.10;;;;;;;8.45;100.00;99486.00;5053584;28;20092;-58
2022/11/09 05:48:08;;;;;;;1.88;0.65;;;;;;;8.39;100.00;99488.56;5056569;28;20031;-61
2022/11/09 05:50:34;;;;;;;1.85;0.20;;;;;;;8.34;100.00;99491.00;5054691;28;20436;-61
2022/11/09 05:53:00;;;;;;;2.08;0.15;;;;;;;8.40;100.00;99495.53;5059641;28;20176;-62
2022/11/09 05:55:26;;;;;;;16.00;1.00;;;;;;;8.40;100.00;99495.53;5055458;28;20075;-58
2022/11/09 05:57:52;;;;;;;6.45;1.27;;;;;;;8.41;100.00;99484.75;5053992;28;20429;-61
2022/11/09 06:00:18;;;;;;;2.22;0.20;;;;;;;8.41;100.00;99489.22;5057400;28;20539;-62
2022/11/09 06:02:43;;;;;;;7.75;0.50;;;;;;;8.44;100.00;99492.28;5051792;28;20318;-61
2022/11/09 06:05:09;;;;;;;0.57;0.00;;;;;;;8.41;100.00;99492.66;5034909;28;20032;-62
2022/11/09 06:07:34;;;;;;;2.38;0.30;;;;;;;8.34;100.00;99494.47;5061046;28;20028;-61
2022/11/09 06:09:59;;;;;;;4.18;0.90;;;;;;;8.34;100.00;99499.75;5052227;28;20078;-62
2022/11/09 06:12:25;;;;;;;3.15;0.40;;;;;;;8.40;100.00;99501.63;5052939;28;20025;-61
2022/11/09 06:14:50;;;;;;;3.33;0.10;;;;;;;8.41;100.00;99510.34;5058631;28;20513;-61
2022/11/09 06:17:16;;;;;;;1.88;0.20;;;;;;;8.44;100.00;99516.06;5034394;28;20464;-62
2022/11/09 06:19:41;;;;;;;2.38;0.00;;;;;;;8.41;100.00;99516.44;5042787;28;20032;-60
2022/11/09 06:22:06;;;;;;;3.35;0.57;;;;;;;8.37;100.00;99530.25;5055293;28;20064;-61
2022/11/09 06:24:32;;;;;;;4.45;0.85;;;;;;;8.36;100.00;99533.88;5047159;28;20108;-62
2022/11/09 06:26:57;;;;;;;2.92;0.50;;;;;;;8.36;100.00;99542.63;5053586;28;20029;-60
2022/11/09 06:29:22;;;;;;;1.20;0.47;;;;;;;8.36;100.00;99550.53;5051782;28;20050;-60
2022/11/09 06:31:48;;;;;;;1.17;0.00;;;;;;;8.37;100.00;99554.81;5062715;28;20020;-59
2022/11/09 06:34:14;;;;;;;1.85;0.20;;;;;;;8.37;100.00;99560.13;5057812;28;20172;-60
2022/11/09 06:36:39;;;;;;;4.22;0.20;;;;;;;8.39;100.00;99557.25;5054813;28;20215;-60
2022/11/09 06:39:07;;;;;;;3.30;0.22;;;;;;;8.36;100.00;99557.66;5061834;28;20029;-61
2022/11/09 06:41:33;;;;;;;2.70;0.28;;;;;;;8.31;100.00;99552.97;5058943;28;20137;-62
2022/11/09 06:43:58;;;;;;;6.00;1.55;;;;;;;8.27;100.00;99564.94;5057633;28;20086;-61
2022/11/09 06:46:23;;;;;;;2.08;0.93;;;;;;;8.21;100.00;99560.44;5056877;28;20043;-59
2022/11/09 06:48:49;;;;;;;2.83;1.05;;;;;;;8.18;100.00;99566.94;5053082;28;20025;-61
2022/11/09 06:51:14;;;;;;;1.38;0.57;;;;;;;8.17;100.00;99567.97;5053517;28;20363;-60
2022/11/09 06:53:40;;;;;;;1.48;0.03;;;;;;;8.17;100.00;99569.78;5038161;28;20107;-62
2022/11/09 06:56:06;;;;;;;0.65;0.45;;;;;;;8.16;100.00;99570.78;5052892;28;20161;-62
2022/11/09 06:58:32;;;;;;;1.50;0.20;;;;;;;8.13;100.00;99576.47;5057514;28;20385;-62
2022/11/09 07:00:57;;;;;;;2.60;0.38;;;;;;;8.10;100.00;99588.22;5050875;28;20029;-62
2022/11/09 07:03:24;;;;;;;1.65;0.30;;;;;;;8.11;100.00;99591.72;5038547;28;20020;-61
2022/11/09 07:05:51;;;;;;;1.35;0.25;;;;;;;8.11;100.00;99594.34;5044383;28;20059;-61
2022/11/09 07:08:17;;;;;;;2.55;0.35;;;;;;;8.11;100.00;99589.06;5054670;28;20205;-62
2022/11/09 07:10:43;;;;;;;0.93;0.00;;;;;;;8.05;100.00;99602.03;5048572;28;20190;-62
2022/11/09 07:13:09;;;;;;;2.45;0.40;;;;;;;8.06;100.00;99618.69;5055746;28;20040;-60
2022/11/09 07:15:36;;;;;;;2.35;0.28;;;;;;;7.97;100.00;99612.75;5057771;28;20032;-60
2022/11/09 07:18:03;;;;;;;4.38;0.20;;;;;;;7.96;100.00;99615.59;5050101;28;20029;-61
2022/11/09 07:20:29;;;;;;;2.65;1.17;;;;;;;7.95;100.00;99619.22;5053338;28;20059;-59
2022/11/09 07:22:54;;;;;;;1.70;0.03;;;;;;;7.95;100.00;99621.88;5044260;28;20381;-59
2022/11/09 07:25:20;;;;;;;3.05;0.10;;;;;;;7.96;100.00;99629.59;5041729;28;20036;-61
2022/11/09 07:27:45;;;;;;;4.70;0.45;;;;;;;8.02;100.00;99642.00;5040695;28;20051;-61
2022/11/09 07:30:11;;;;;;;2.55;0.70;;;;;;;8.08;100.00;99643.09;5025967;28;20096;-59
2022/11/09 07:32:38;;;;;;;2.05;0.40;;;;;;;8.14;100.00;99644.13;5041249;28;20033;-58
2022/11/09 07:35:04;;;;;;;2.35;0.10;;;;;;;8.15;100.00;99648.38;5019571;28;20041;-61
2022/11/09 07:37:31;;;;;;;6.85;1.30;;;;;;;8.13;100.00;99650.41;5042945;28;20110;-59
2022/11/09 07:39:56;;;;;;;1.75;0.00;;;;;;;8.09;100.00;99661.34;5064592;28;20056;-61
2022/11/09 07:42:22;;;;;;;0.43;0.03;;;;;;;8.03;100.00;99659.50;5059503;28;20643;-61
2022/11/09 07:44:48;;;;;;;2.22;0.75;;;;;;;8.02;100.00;99665.78;5062826;28;20032;-61
2022/11/09 07:47:14;;;;;;;2.40;0.20;;;;;;;8.05;100.00;99675.97;5061917;28;20494;-61
2022/11/09 07:49:40;;;;;;;2.72;0.35;;;;;;;8.07;100.00;99673.94;5050851;28;20107;-62
2022/11/09 07:52:05;;;;;;;0.45;0.10;;;;;;;8.12;100.00;99681.28;5060159;28;20107;-61
2022/11/09 07:54:30;;;;;;;0.20;0.08;;;;;;;8.09;100.00;99697.50;5057141;28;20515;-61
2022/11/09 07:56:56;;;;;;;2.17;0.63;;;;;;;8.14;100.00;99703.03;5055803;28;20036;-61
2022/11/09 07:59:21;;;;;;;0.85;0.30;;;;;;;8.17;100.00;99696.53;5062605;28;20031;-58
2022/11/09 08:01:46;;;;;;;4.13;0.55;;;;;;;8.19;100.00;99700.63;5047394;28;20560;-59
2022/11/09 08:04:13;;;;;;;2.72;0.60;;;;;;;8.21;100.00;99721.53;5050182;28;20059;-61
2022/11/09 08:06:38;;;;;;;0.57;0.10;;;;;;;8.24;100.00;99721.97;5052095;28;20414;-61
2022/11/09 08:09:04;;;;;;;7.90;0.20;;;;;;;8.31;100.00;99724.63;5053740;28;20032;-61
2022/11/09 08:11:29;;;;;;;0.47;0.17;;;;;;;8.39;100.00;99729.81;5056220;28;20028;-60
2022/11/09 08:13:55;;;;;;;2.55;0.00;;;;;;;8.44;100.00;99722.13;5054850;28;20043;-60
2022/11/09 08:16:21;;;;;;;4.03;0.05;;;;;;;8.48;100.00;99733.91;5057627;28;20039;-58
2022/11/09 08:18:49;;;;;;;0.68;0.40;;;;;;;8.54;100.00;99731.50;5037024;28;20542;-61
2022/11/09 08:21:14;;;;;;;2.05;0.30;;;;;;;8.57;100.00;99739.88;5055741;28;20033;-59
2022/11/09 08:23:39;;;;;;;4.18;1.08;;;;;;;8.63;100.00;99748.84;5057597;28;20032;-59
2022/11/09 08:26:05;;;;;;;1.38;0.75;;;;;;;8.70;100.00;99747.88;5051129;28;20090;-58
2022/11/09 08:28:32;;;;;;;1.27;0.30;;;;;;;8.84;100.00;99758.50;5053845;28;20429;-60
2022/11/09 08:30:59;;;;;;;3.72;1.65;;;;;;;8.93;100.00;99762.56;5053176;28;20157;-60
2022/11/09 08:33:27;;;;;;;4.55;0.43;;;;;;;8.99;100.00;99766.28;5058067;28;20056;-61
2022/11/09 08:35:53;;;;;;;4.57;0.45;;;;;;;8.98;100.00;99768.09;5057890;28;20553;-58
2022/11/09 08:38:19;;;;;;;3.53;0.70;;;;;;;8.96;100.00;99772.78;5052165;28;20119;-59
2022/11/09 08:40:44;;;;;;;3.15;0.15;;;;;;;8.98;100.00;99780.50;5052067;28;20046;-54
2022/11/09 08:43:10;;;;;;;2.10;0.20;;;;;;;9.06;100.00;99781.16;5057731;28;20032;-59
2022/11/09 08:45:37;;;;;;;0.63;0.20;;;;;;;9.12;100.00;99790.94;5054290;28;20036;-61
2022/11/09 08:48:03;;;;;;;2.25;0.17;;;;;;;9.15;100.00;99784.44;5061512;28;20033;-61
2022/11/09 08:50:30;;;;;;;3.08;0.40;;;;;;;9.21;100.00;99788.91;5056107;28;20024;-61
2022/11/09 08:52:56;;;;;;;8.32;2.80;;;;;;;9.27;100.00;99782.84;5055368;28;20123;-58
2022/11/09 08:55:22;;;;;;;25.83;11.68;;;;;;;9.37;100.00;99788.56;5058352;28;20405;-56
2022/11/09 08:57:47;;;;;;;15.07;4.63;;;;;;;9.39;100.00;99786.53;5042298;28;20829;-58
2022/11/09 09:00:14;;;;;;;9.07;2.70;;;;;;;9.48;100.00;99787.16;5054241;28;20086;-60
2022/11/09 09:02:39;;;;;;;3.47;2.25;;;;;;;9.54;100.00;99790.84;5053585;28;20032;-61
2022/11/09 09:05:05;;;;;;;3.03;0.63;;;;;;;9.56;100.00;99789.63;5052071;28;20073;-61
2022/11/09 09:07:30;;;;;;;3.38;1.23;;;;;;;9.53;100.00;99795.31;5058636;28;20059;-62
2022/11/09 09:09:56;;;;;;;3.75;1.33;;;;;;;9.54;100.00;99790.84;5056506;28;22270;-61
2022/11/09 09:12:21;;;;;;;4.45;1.17;;;;;;;9.63;100.00;99792.28;5042511;28;20036;-59
2022/11/09 09:14:47;;;;;;;3.40;0.93;;;;;;;9.57;100.00;99787.78;5056208;28;20041;-60
2022/11/09 09:17:12;;;;;;;2.70;0.60;;;;;;;9.53;100.00;99799.81;5039798;28;20044;-60
2022/11/09 09:19:37;;;;;;;2.92;0.85;;;;;;;9.63;100.00;99794.94;5057307;28;20040;-61
2022/11/09 09:22:03;;;;;;;1.85;0.10;;;;;;;9.73;100.00;99800.66;5053324;28;20405;-61
2022/11/09 09:24:28;;;;;;;0.22;0.00;;;;;;;9.93;100.00;99802.50;5054426;28;20143;-61
2022/11/09 09:26:54;;;;;;;3.42;0.43;;;;;;;10.10;100.00;99793.13;5058904;28;21742;-61
2022/11/09 09:29:19;;;;;;;1.95;0.10;;;;;;;10.33;100.00;99798.03;5052342;28;20048;-60
2022/11/09 09:31:44;;;;;;;1.02;0.30;;;;;;;10.30;100.00;99795.81;5051765;28;20037;-60
2022/11/09 09:34:12;;;;;;;3.38;0.00;;;;;;;10.25;100.00;99788.44;5059237;28;20036;-61
2022/11/09 09:36:38;;;;;;;1.50;0.10;;;;;;;10.24;100.00;99802.69;5059329;28;20032;-57
2022/11/09 09:39:04;;;;;;;1.70;0.15;;;;;;;10.19;100.00;99797.19;5059289;28;20072;-61
2022/11/09 09:41:35;;;;;;;1.08;0.00;;;;;;;10.21;100.00;99791.69;5057888;28;20429;-57
2022/11/09 09:44:23;;;;;;;1.00;0.10;;;;;;;10.15;100.00;99803.94;5055875;28;20028;-61
2022/11/09 09:46:55;;;;;;;1.58;0.00;;;;;;;10.05;100.00;99808.81;5059841;28;20110;-60
2022/11/09 09:49:28;;;;;;;;;;;;;;;10.05;100.00;99808.81;5057388;28;20123;-61
2022/11/09 09:52:00;;;;;;;0.00;0.00;;;;;;;10.14;100.00;99818.16;5060323;28;19924;-61
2022/11/09 09:58:19;;;;;;;3.65;1.05;;;;;;;10.35;100.00;99825.16;5036757;28;20634;-61
2022/11/09 10:00:44;;;;;;;2.63;0.30;;;;;;;10.47;100.00;99825.31;5038687;28;20581;-59
2022/11/09 10:03:17;;;;;;;1.75;0.22;;;;;;;10.60;100.00;99827.94;5046231;28;20047;-62
2022/11/09 10:05:57;;;;;;;2.50;0.52;;;;;;;10.66;100.00;99832.44;5054649;28;20036;-62
2022/11/09 10:08:36;;;;;;;3.53;0.10;;;;;;;10.65;100.00;99829.97;5062754;28;20055;-62
2022/11/09 10:11:27;;;;;;;5.20;0.40;;;;;;;10.72;100.00;99835.28;5060985;28;20032;-59
2022/11/09 10:14:03;;;;;;;2.03;0.10;;;;;;;10.77;100.00;99827.53;5060152;28;20060;-64
2022/11/09 10:16:50;;;;;;;1.88;0.65;;;;;;;10.83;100.00;99822.19;5061986;28;20076;-62
2022/11/09 10:19:27;;;;;;;1.38;0.25;;;;;;;10.97;100.00;99825.63;5060629;28;20489;-62
2022/11/09 10:22:10;;;;;;;2.15;0.13;;;;;;;11.11;100.00;99827.19;5059994;28;20043;-61
2022/11/09 10:24:48;;;;;;;1.75;0.03;;;;;;;11.20;100.00;99842.88;5062758;28;20033;-62
2022/11/09 10:27:25;;;;;;;1.35;0.38;;;;;;;11.21;100.00;99833.91;5063329;28;20123;-60
2022/11/09 10:29:50;;;;;;;1.27;0.05;;;;;;;11.31;100.00;99837.72;5064042;28;20540;-62
2022/11/09 10:32:18;;;;;;;2.13;0.32;;;;;;;11.32;100.00;99839.34;5059065;28;20032;-62
2022/11/09 10:34:53;;;;;;;4.50;0.25;;;;;;;11.58;100.00;99837.59;5044219;28;20033;-61
2022/11/09 10:37:27;;;;;;;2.78;0.10;;;;;;;11.69;100.00;99846.69;5064847;28;20063;-59
2022/11/09 10:40:03;;;;;;;0.55;0.10;;;;;;;11.60;100.00;99856.78;5054846;28;20037;-60
2022/11/09 10:42:29;;;;;;;10.65;0.52;;;;;;;11.65;100.00;99858.78;5058448;28;20039;-61
2022/11/09 10:44:54;;;;;;;0.25;0.25;;;;;;;11.56;100.00;99855.56;5065855;28;20081;-59
2022/11/09 10:47:21;;;;;;;2.03;0.20;;;;;;;11.52;100.00;99847.22;5064809;28;20036;-60
2022/11/09 10:50:14;;;;;;;5.43;0.30;;;;;;;11.57;100.00;99849.25;5066037;28;20032;-62
2022/11/09 10:52:39;;;;;;;1.27;0.30;;;;;;;11.71;100.00;99844.66;5059809;28;20047;-62
2022/11/09 10:55:23;;;;;;;2.67;1.00;;;;;;;11.94;100.00;99849.44;5043721;28;20123;-61
2022/11/09 10:57:53;;;;;;;2.30;0.03;;;;;;;12.13;100.00;99856.47;5064904;28;20059;-61
2022/11/09 11:00:19;;;;;;;1.67;0.08;;;;;;;12.26;100.00;99855.53;5057471;28;20024;-60
2022/11/09 11:02:46;;;;;;;3.10;0.00;;;;;;;12.31;100.00;99841.59;5053219;28;20535;-61
2022/11/09 11:05:19;;;;;;;2.67;0.03;;;;;;;12.40;100.00;99841.09;5027894;28;20138;-61
2022/11/09 11:07:45;;;;;;;6.13;0.43;;;;;;;12.30;100.00;99845.28;5057766;28;21268;-63
2022/11/09 11:10:10;;;;;;;8.07;0.35;;;;;;;12.28;100.00;99856.13;5062762;28;20069;-60
2022/11/09 11:12:36;;;;;;;0.85;0.00;;;;;;;12.36;100.00;99861.16;5060918;28;20387;-61
2022/11/09 11:15:01;;;;;;;3.22;1.15;;;;;;;12.22;100.00;99859.66;5058472;28;20039;-61
2022/11/09 11:17:34;;;;;;;6.30;1.50;;;;;;;12.20;100.00;99869.69;5060934;28;20058;-61
2022/11/09 11:20:28;;;;;;;1.48;1.00;;;;;;;12.36;100.00;99879.78;5061178;28;20027;-60
2022/11/09 11:23:18;;;;;;;1.70;0.20;;;;;;;12.27;100.00;99880.28;5060289;28;20040;-61
2022/11/09 11:25:52;;;;;;;3.63;0.25;;;;;;;12.34;100.00;99881.84;5064169;28;20039;-60
2022/11/09 11:28:33;;;;;;;0.47;0.47;;;;;;;12.32;100.00;99888.41;5056282;28;21306;-59
2022/11/09 11:30:59;;;;;;;0.90;0.10;;;;;;;12.42;100.00;99884.25;5060949;28;20039;-55
2022/11/09 11:33:25;;;;;;;0.80;0.10;;;;;;;12.49;100.00;99883.34;5064524;28;20029;-58
2022/11/09 11:36:24;;;;;;;0.80;0.20;;;;;;;12.68;100.00;99882.38;5064451;28;20046;-58